Data for 07/21/2016

Time Sea-Level Adjusted Pressure Absolute Pressure Temperature Relative Humidity Dew Point   
(mb) (inHg) (mb) (inHg) (C) (F) (%) (C) (F)
00:05 1022 30.18 851 25.13 19.5 67.1 34 3.4 38.2
00:10 1022 30.18 851 25.13 19.5 67.1 35 3.8 38.9
00:15 1022 30.18 851 25.13 19.5 67.1 34 3.4 38.2
00:20 1022 30.18 852 25.16 19.5 67.2 35 3.7 38.7
00:25 1022 30.18 852 25.16 19.4 66.9 36 4 39.3
00:30 1022 30.18 852 25.16 19.2 66.5 37 4.1 39.5
00:35 1023 30.21 852 25.16 19 66.1 37 4.1 39.4
00:40 1023 30.21 852 25.16 18.9 66.1 37 4.2 39.5
00:45 1023 30.21 852 25.16 18.8 65.8 37 4 39.2
00:50 1023 30.21 852 25.16 18.8 65.8 38 4.3 39.8
00:55 1023 30.21 852 25.16 18.5 65.3 39 4.5 40.1
01:00 1023 30.21 852 25.16 18.4 65.2 39 4.3 39.8
01:05 1023 30.21 852 25.16 18.3 65 40 4.6 40.3
01:10 1023 30.21 852 25.16 18.2 64.7 39 4.2 39.6
01:15 1023 30.21 852 25.16 18.1 64.6 40 4.3 39.7
01:20 1023 30.21 852 25.16 18.2 64.7 39 4.2 39.5
01:25 1023 30.21 852 25.16 18.2 64.7 40 4.6 40.3
01:30 1023 30.21 852 25.16 18 64.4 41 4.5 40.1
01:35 1023 30.21 852 25.16 18 64.3 41 4.6 40.2
01:40 1023 30.21 852 25.16 17.8 64.1 41 4.5 40.1
01:45 1023 30.21 852 25.16 17.6 63.8 42 4.7 40.4
01:50 1023 30.21 852 25.16 17.4 63.4 43 4.7 40.5
01:55 1023 30.21 852 25.16 17.2 63 44 4.9 40.8
02:00 1023 30.21 852 25.16 17 62.7 43 4.6 40.3
02:05 1023 30.21 852 25.16 16.9 62.4 44 4.7 40.4
02:10 1023 30.21 852 25.16 16.6 61.9 46 5 40.9
02:15 1023 30.21 852 25.16 16.1 61 47 4.8 40.6
02:20 1023 30.21 853 25.19 16.1 60.9 46 4.6 40.3
02:25 1023 30.21 853 25.19 16.3 61.3 46 4.7 40.4
02:30 1023 30.21 853 25.19 16.4 61.6 46 4.9 40.9
02:35 1024 30.24 853 25.19 16.3 61.3 48 5.3 41.6
02:40 1024 30.24 853 25.19 16.1 61 49 5.4 41.7
02:45 1023 30.21 853 25.19 16 60.8 47 4.7 40.5
02:50 1023 30.21 853 25.19 16.1 60.9 46 4.5 40.2
02:55 1024 30.24 853 25.19 15.9 60.5 48 5 41.1
03:00 1024 30.24 853 25.19 15.4 59.6 48 4.6 40.3
03:05 1024 30.24 853 25.19 15.4 59.8 47 4.3 39.7
03:10 1024 30.24 853 25.19 15.9 60.6 48 4.9 40.8
03:15 1024 30.24 853 25.19 16.1 60.9 45 4.1 39.4
03:20 1024 30.24 853 25.19 16.2 61.1 44 4.2 39.5
03:25 1024 30.24 853 25.19 16.1 60.9 45 4.3 39.7
03:30 1024 30.24 853 25.19 15.9 60.6 46 4.3 39.8
03:35 1024 30.24 853 25.19 15.8 60.4 46 4.3 39.8
03:40 1024 30.24 853 25.19 15.6 60.1 47 4.5 40.2
03:45 1024 30.24 853 25.19 15.3 59.5 49 4.8 40.7
03:50 1024 30.24 853 25.19 15 58.9 50 4.9 40.7
03:55 1024 30.24 853 25.19 14.8 58.6 52 5 41
04:00 1024 30.24 853 25.19 14.5 58.1 52 4.8 40.7
04:05 1024 30.24 853 25.19 14.6 58.2 51 4.6 40.2
04:10 1024 30.24 853 25.19 14.9 58.8 51 4.8 40.7
04:15 1024 30.24 853 25.19 14.6 58.3 51 4.7 40.5
04:20 1024 30.24 853 25.19 14.6 58.2 52 4.9 40.8
04:25 1024 30.24 853 25.19 14.4 58 52 4.8 40.6
04:30 1024 30.24 853 25.19 14.4 58 51 4.4 39.9
04:35 1024 30.24 853 25.19 14.6 58.3 51 4.6 40.3
04:40 1024 30.24 853 25.19 14.6 58.2 51 4.6 40.3
04:45 1024 30.24 853 25.19 14.6 58.3 51 4.6 40.2
04:50 1024 30.24 853 25.19 14.5 58.2 51 4.6 40.4
04:55 1024 30.24 853 25.19 14.3 57.8 52 4.6 40.4
05:00 1024 30.24 853 25.19 14.3 57.8 51 4.3 39.8
05:05 1024 30.24 853 25.19 14.9 58.7 47 3.8 38.8
05:10 1024 30.24 853 25.19 15.3 59.6 47 4.1 39.3
05:15 1024 30.24 853 25.19 15.4 59.7 46 3.9 39.1
05:20 1024 30.24 853 25.19 15.6 60 46 4.1 39.3
05:25 1024 30.24 853 25.19 15.6 60.1 45 3.9 39
05:30 1024 30.24 853 25.19 15.7 60.3 46 4.1 39.3
05:35 1024 30.24 853 25.19 15.5 59.9 47 4.3 39.8
05:40 1024 30.24 853 25.19 15.3 59.5 47 4.3 39.7
05:45 1024 30.24 853 25.19 15.2 59.4 48 4.4 39.9
05:50 1024 30.24 853 25.19 15.2 59.4 48 4.4 39.9
05:55 1024 30.24 853 25.19 15.3 59.6 48 4.4 40
06:00 1024 30.24 853 25.19 15.4 59.7 47 4.4 39.9
06:05 1024 30.24 853 25.19 15.5 60 47 4.4 40
06:10 1024 30.24 853 25.19 15.8 60.4 46 4.3 39.7
06:15 1024 30.24 854 25.22 16.2 61.1 45 4.4 39.9
06:20 1024 30.24 854 25.22 16.5 61.6 45 4.5 40.2
06:25 1024 30.24 854 25.22 16.7 62.1 44 4.5 40.1
06:30 1024 30.24 854 25.22 17.4 63.2 42 4.5 40.1
06:35 1024 30.24 854 25.22 17.3 63.2 42 4.5 40
06:40 1025 30.27 854 25.22 17.6 63.8 42 4.7 40.4
06:45 1025 30.27 854 25.22 17.9 64.1 42 4.9 40.9
06:50 1025 30.27 854 25.22 18.3 64.9 41 4.8 40.6
06:55 1025 30.27 854 25.22 19.2 66.5 38 4.6 40.3
07:00 1025 30.27 854 25.22 19.8 67.6 37 4.7 40.4
07:05 1025 30.27 854 25.22 20 68 36 4.7 40.4
07:10 1025 30.27 854 25.22 20.3 68.6 34 4.2 39.5
07:15 1025 30.27 854 25.22 20.7 69.2 34 4.6 40.3
07:20 1025 30.27 854 25.22 20.7 69.3 35 5 41.1
07:25 1025 30.27 854 25.22 20.8 69.4 36 5.3 41.5
07:30 1025 30.27 854 25.22 20.8 69.5 35 4.9 40.8
07:35 1025 30.27 854 25.22 21.3 70.3 34 4.8 40.6
07:40 1025 30.27 854 25.22 21.3 70.3 34 5.1 41.2
07:45 1025 30.27 854 25.22 21.2 70.1 35 5.2 41.4
07:50 1025 30.27 854 25.22 21.4 70.6 33 4.8 40.7
07:55 1025 30.27 854 25.22 22 71.5 33 5.3 41.5
08:00 1025 30.27 854 25.22 22.2 72 32 4.9 40.7
08:05 1025 30.27 854 25.22 22.5 72.6 32 5 41
08:10 1025 30.27 854 25.22 22.3 72.1 32 5.2 41.3
08:15 1025 30.27 854 25.22 22.1 71.7 32 4.8 40.6
08:20 1025 30.27 854 25.22 22.3 72.1 31 4.5 40.1
08:25 1025 30.27 854 25.22 22.3 72.2 29 3.8 38.8
08:30 1025 30.27 854 25.22 22.8 73 28 3.3 37.9
08:35 1025 30.27 854 25.22 22.7 72.8 30 4.3 39.7
08:40 1025 30.27 854 25.22 22.8 73 29 4.2 39.6
08:45 1025 30.27 854 25.22 23 73.3 29 4.2 39.5
08:50 1025 30.27 854 25.22 23.3 74 28 4.1 39.5
08:55 1025 30.27 854 25.22 23.3 74 28 4.1 39.3
09:00 1025 30.27 854 25.22 23.4 74.2 28 4 39.1
09:05 1025 30.27 854 25.22 23.3 74 28 4 39.2
09:10 1025 30.27 854 25.22 23.5 74.3 29 4.6 40.4
09:15 1025 30.27 854 25.22 23.3 73.9 27 3.3 37.9
09:20 1025 30.27 854 25.22 23.6 74.5 26 3.2 37.7
09:25 1025 30.27 854 25.22 24.1 75.3 26 3.5 38.2
09:30 1025 30.27 854 25.22 24.4 75.9 25 3.4 38.1
09:35 1025 30.27 854 25.22 24.7 76.4 25 3.8 38.9
09:40 1025 30.27 854 25.22 24.9 76.9 23 2.8 37
09:45 1025 30.27 854 25.22 25.4 77.7 23 3.3 37.9
09:50 1025 30.27 854 25.22 24.9 76.9 24 3.2 37.7
09:55 1025 30.27 854 25.22 24.9 76.7 24 3.3 38
10:00 1025 30.27 854 25.22 24.9 76.8 24 3.5 38.2
10:05 1025 30.27 854 25.22 25.1 77.2 26 4.6 40.4
10:10 1025 30.27 854 25.22 24.9 76.8 25 3.8 38.8
10:15 1025 30.27 854 25.22 25 76.9 25 3.8 38.8
10:20 1025 30.27 854 25.22 25.3 77.5 25 3.9 39
10:25 1025 30.27 854 25.22 25.6 78.1 24 4 39.3
10:30 1025 30.27 854 25.22 25.7 78.2 24 3.8 38.8
10:35 1025 30.27 854 25.22 25.1 77.2 24 3.4 38.2
10:40 1025 30.27 854 25.22 25.8 78.4 23 3.2 37.8
10:45 1025 30.27 854 25.22 26.5 79.8 22 3.6 38.4
10:50 1025 30.27 854 25.22 26.4 79.5 24 4.5 40.2
10:55 1024 30.24 854 25.22 27.2 80.9 22 4.1 39.4
11:00 1024 30.24 854 25.22 27.4 81.4 22 4.4 39.8
11:05 1024 30.24 854 25.22 27.1 80.8 22 3.5 38.4
11:10 1024 30.24 854 25.22 26.8 80.2 22 3.3 38
11:15 1024 30.24 854 25.22 26.9 80.5 21 3.2 37.8
11:20 1024 30.24 854 25.22 27.4 81.3 21 3.2 37.7
11:25 1024 30.24 853 25.19 27.3 81.1 22 3.9 39
11:30 1024 30.24 853 25.19 27.3 81.1 22 4 39.2
11:35 1024 30.24 853 25.19 26.6 79.9 22 3.2 37.7
11:40 1024 30.24 853 25.19 27.1 80.9 20 2.8 37.1
11:45 1024 30.24 853 25.19 27.9 82.3 19 2.7 36.8
11:50 1024 30.24 853 25.19 27.9 82.2 20 3.1 37.5
11:55 1024 30.24 853 25.19 28.2 82.8 20 3.1 37.6
12:00 1024 30.24 853 25.19 28.1 82.5 19 2.3 36.1
12:05 1024 30.24 853 25.19 27.3 81.1 18 1.2 34.2
12:10 1024 30.24 853 25.19 28.2 82.7 15 -0.9 30.4
12:15 1024 30.24 853 25.19 28.4 83.2 15 -0.7 30.8
12:20 1023 30.21 853 25.19 30.1 86.1 15 0.9 33.7
12:25 1024 30.24 853 25.19 29.4 85 15 0.7 33.2
12:30 1023 30.21 853 25.19 28.6 83.5 15 -0.4 31.2
12:35 1023 30.21 853 25.19 29.3 84.7 15 -0.1 31.9
12:40 1023 30.21 853 25.19 28.9 84.1 14 -0.5 31.1
12:45 1023 30.21 853 25.19 29.3 84.7 15 -0.1 31.9
12:50 1023 30.21 852 25.16 29 84.2 15 0.1 32.1
12:55 1023 30.21 852 25.16 29.6 85.3 14 -0.3 31.5
13:00 1023 30.21 852 25.16 30.3 86.5 13 -1.2 29.8
13:05 1023 30.21 852 25.16 29.8 85.6 14 -0.2 31.7
13:10 1023 30.21 852 25.16 30.4 86.7 13 -0.9 30.3
13:15 1023 30.21 852 25.16 30.2 86.4 13 -1 30.2
13:20 1023 30.21 852 25.16 30.9 87.6 13 -0.7 30.8
13:25 1023 30.21 852 25.16 31 87.7 13 -0.2 31.7
13:30 1023 30.21 852 25.16 30.1 86.1 13 -0.9 30.4
13:35 1023 30.21 852 25.16 29.3 84.7 13 -1.2 29.8
13:40 1023 30.21 852 25.16 30 85.9 14 -0.3 31.4
13:45 1022 30.18 852 25.16 30 86.1 14 -0.4 31.3
13:50 1022 30.18 852 25.16 30.6 87 13 -0.7 30.8
13:55 1022 30.18 852 25.16 31 87.8 13 -0.2 31.7
14:00 1022 30.18 852 25.16 30.9 87.6 13 -0.8 30.6
14:05 1022 30.18 851 25.13 30.9 87.7 13 0.2 32.3
14:10 1022 30.18 851 25.13 30.9 87.6 13 -0.2 31.7
14:15 1022 30.18 851 25.13 31.2 88.2 14 0.7 33.3
14:20 1022 30.18 851 25.13 30.5 87 13 -0.3 31.5
14:25 1022 30.18 851 25.13 30.8 87.4 13 -0.1 31.8
14:30 1022 30.18 851 25.13 31 87.7 13 -0.6 31
14:35 1022 30.18 851 25.13 31.3 88.3 13 0 32.1
14:40 1022 30.18 851 25.13 31.3 88.3 13 0.5 32.8
14:45 1022 30.18 851 25.13 31.9 89.4 12 -0.3 31.5
14:50 1022 30.18 851 25.13 32 89.5 12 -0.6 30.9
14:55 1022 30.18 851 25.13 31.5 88.7 12 -0.5 31.1
15:00 1022 30.18 851 25.13 31.6 89 12 -0.6 30.9
15:05 1021 30.15 851 25.13 31.5 88.8 14 0.9 33.6
15:10 1021 30.15 851 25.13 31.6 88.8 12 -0.5 31.1
15:15 1021 30.15 851 25.13 31.8 89.2 13 0.1 32.1
15:20 1021 30.15 850 25.1 32 89.7 12 -0.1 31.7
15:25 1021 30.15 850 25.1 31.9 89.3 12 -0.1 31.8
15:30 1021 30.15 850 25.1 31.8 89.2 12 -0.7 30.7
15:35 1021 30.15 850 25.1 31.9 89.4 12 -0.1 31.8
15:40 1021 30.15 850 25.1 31.8 89.2 13 0.3 32.5
15:45 1021 30.15 850 25.1 31.9 89.4 12 -0.3 31.4
15:50 1021 30.15 850 25.1 31.8 89.3 12 -0.5 31
15:55 1021 30.15 850 25.1 32 89.5 12 -0.3 31.4
16:00 1021 30.15 850 25.1 31.5 88.7 13 -0.3 31.5
16:05 1021 30.15 850 25.1 31.5 88.7 12 -1.3 29.7
16:10 1021 30.15 850 25.1 31.7 89.1 12 -0.3 31.4
16:15 1021 30.15 850 25.1 31.8 89.3 11 -1.4 29.4
16:20 1021 30.15 850 25.1 31.4 88.6 12 -1.1 30.1
16:25 1021 30.15 850 25.1 31.5 88.8 11 -2.1 28.3
16:30 1021 30.15 850 25.1 32.1 89.7 12 -0.9 30.4
16:35 1021 30.15 850 25.1 32.4 90.2 11 -1.1 30
16:40 1021 30.15 850 25.1 31.4 88.6 13 -0.3 31.4
16:45 1021 30.15 850 25.1 31.7 89.1 12 -0.4 31.4
16:50 1021 30.15 850 25.1 32.2 90 11 -1.6 29.1
16:55 1021 30.15 850 25.1 31.9 89.5 11 -1.7 29
17:00 1021 30.15 850 25.1 31.1 88.1 12 -1.5 29.4
17:05 1021 30.15 850 25.1 31.6 88.8 12 -1.4 29.5
17:10 1021 30.15 850 25.1 32.3 90.1 11 -1.8 28.8
17:15 1021 30.15 850 25.1 32.4 90.4 14 2 35.7
17:20 1021 30.15 850 25.1 32.4 90.2 10 -2.4 27.6
17:25 1021 30.15 850 25.1 32 89.7 11 -2.3 27.8
17:30 1020 30.12 850 25.1 32.1 89.7 10 -2.9 26.7
17:35 1020 30.12 850 25.1 32 89.7 11 -1.5 29.2
17:40 1020 30.12 850 25.1 31.6 89 10 -3.1 26.5
17:45 1020 30.12 850 25.1 31.5 88.7 11 -2.8 27
17:50 1020 30.12 849 25.07 31.3 88.3 11 -2.5 27.5
17:55 1020 30.12 849 25.07 30.8 87.4 11 -2.4 27.6
18:00 1020 30.12 849 25.07 30.7 87.2 11 -2.4 27.6
18:05 1020 30.12 849 25.07 30.9 87.6 11 -2.1 28.2
18:10 1020 30.12 849 25.07 31.3 88.4 11 -2.5 27.5
18:15 1020 30.12 849 25.07 31.3 88.3 12 -1.4 29.5
18:20 1020 30.12 849 25.07 31.1 87.9 11 -2.6 27.3
18:25 1020 30.12 849 25.07 30.6 87.2 11 -2.7 27.2
18:30 1020 30.12 849 25.07 30.4 86.8 11 -3.2 26.3
18:35 1020 30.12 849 25.07 30.4 86.7 11 -2.9 26.7
18:40 1020 30.12 849 25.07 30.3 86.5 11 -3 26.6
18:45 1020 30.12 849 25.07 30.2 86.3 11 -2.6 27.3
18:50 1020 30.12 849 25.07 30.1 86.1 12 -2 28.4
18:55 1020 30.12 849 25.07 29.8 85.6 13 -1.6 29.2
19:00 1020 30.12 849 25.07 29.4 85 14 -0.3 31.4
19:05 1020 30.12 849 25.07 29.4 84.9 12 -2.9 26.8
19:10 1020 30.12 849 25.07 29.3 84.7 15 0.6 33
19:15 1020 30.12 849 25.07 28.3 83 17 1.6 35
19:20 1020 30.12 849 25.07 27.8 82 17 0.6 33.1
19:25 1020 30.12 849 25.07 27.7 81.8 17 0.5 32.9
19:30 1020 30.12 849 25.07 27.4 81.4 20 2.6 36.6
19:35 1020 30.12 849 25.07 26.8 80.2 18 0.6 33.1
19:40 1020 30.12 849 25.07 26.5 79.7 23 4.1 39.5
19:45 1020 30.12 849 25.07 25.9 78.6 27 5.8 42.4
19:50 1020 30.12 849 25.07 25.4 77.7 24 3.8 38.8
19:55 1020 30.12 850 25.1 24.7 76.5 24 3.1 37.5
20:00 1020 30.12 850 25.1 24.4 76 26 3.7 38.6
20:05 1020 30.12 850 25.1 24.2 75.5 26 3.7 38.6
20:10 1020 30.12 850 25.1 24 75.2 24 2.3 36.2
20:15 1020 30.12 850 25.1 24.1 75.4 23 1.9 35.5
20:20 1020 30.12 850 25.1 24.4 75.9 22 1.8 35.3
20:25 1020 30.12 850 25.1 24.3 75.8 23 1.9 35.4
20:30 1020 30.12 850 25.1 24.3 75.8 22 1.3 34.4
20:35 1020 30.12 850 25.1 24.7 76.5 21 1.2 34.1
20:40 1020 30.12 850 25.1 24.9 76.9 20 0.9 33.7
20:45 1021 30.15 850 25.1 24.9 76.8 20 0.7 33.2
20:50 1021 30.15 850 25.1 24.7 76.5 20 0.6 33.1
20:55 1020 30.12 850 25.1 25.1 77.1 18 -0.4 31.3
21:00 1020 30.12 850 25.1 25.3 77.6 18 -0.3 31.5
21:05 1020 30.12 850 25.1 25.5 78 16 -1.9 28.6
21:10 1020 30.12 850 25.1 26.3 79.3 15 -2 28.5
21:15 1020 30.12 850 25.1 26.8 80.2 15 -1.5 29.3
21:20 1020 30.12 850 25.1 27 80.5 15 -1.2 29.8
21:25 1020 30.12 850 25.1 26.7 80 16 -1.4 29.6
21:30 1020 30.12 850 25.1 26.6 79.9 17 -0.5 31.1
21:35 1020 30.12 850 25.1 26.4 79.5 17 -0.1 31.9
21:40 1020 30.12 850 25.1 26.4 79.5 19 1 33.7
21:45 1020 30.12 849 25.07 25.9 78.7 20 1.2 34.2
21:50 1020 30.12 849 25.07 26.1 78.9 18 0.5 32.9
21:55 1020 30.12 849 25.07 26.3 79.3 19 0.9 33.7
22:00 1020 30.12 849 25.07 26.1 79 19 1.2 34.2
22:05 1020 30.12 849 25.07 25.8 78.4 20 1.5 34.7
22:10 1020 30.12 849 25.07 25.9 78.6 20 1.6 34.9
22:15 1020 30.12 849 25.07 26 78.8 20 1.6 34.8
22:20 1020 30.12 849 25.07 26 78.9 20 1.3 34.3
22:25 1020 30.12 849 25.07 26 78.9 20 1.5 34.8
22:30 1020 30.12 849 25.07 25.9 78.6 20 1.7 35
22:35 1020 30.12 849 25.07 25.8 78.4 20 1.6 35
22:40 1020 30.12 849 25.07 25.5 77.9 21 1.6 35
22:45 1020 30.12 849 25.07 25.4 77.8 21 1.7 35
22:50 1020 30.12 849 25.07 25.4 77.7 21 1.7 35
22:55 1020 30.12 849 25.07 25.3 77.5 21 1.5 34.7
23:00 1020 30.12 849 25.07 25.3 77.5 21 1.4 34.6
23:05 1020 30.12 849 25.07 25.2 77.3 21 1.4 34.6
23:10 1020 30.12 849 25.07 25.1 77.2 20 1.2 34.1
23:15 1020 30.12 849 25.07 25.3 77.5 20 1 33.8
23:20 1020 30.12 849 25.07 25.2 77.4 20 1.2 34.1
23:25 1020 30.12 849 25.07 25 76.9 21 1.2 34.2
23:30 1020 30.12 849 25.07 24.8 76.6 21 1.1 33.9
23:35 1020 30.12 849 25.07 24.6 76.2 21 0.9 33.7
23:40 1020 30.12 849 25.07 24.5 76.1 21 0.7 33.3
23:45 1020 30.12 849 25.07 24.5 76.1 21 0.8 33.4
23:50 1020 30.12 849 25.07 24.4 75.9 21 0.6 33.1
23:55 1020 30.12 849 25.07 24.4 75.9 20 0.3 32.5
24:00 1020 30.12 849 25.07 24.4 76 20 0.3 32.5